sensor_id;sensor_type;location;lat;lon;timestamp;temperature;humidity
22450;DHT22;11392;57.390;-2.468;2023-05-02T00:00:56;3.90;99.90
22450;DHT22;11392;57.390;-2.468;2023-05-02T00:03:24;3.80;99.90
22450;DHT22;11392;57.390;-2.468;2023-05-02T00:05:52;3.80;99.90
22450;DHT22;11392;57.390;-2.468;2023-05-02T00:08:20;3.80;99.90
22450;DHT22;11392;57.390;-2.468;2023-05-02T00:10:46;3.90;99.90
22450;DHT22;11392;57.390;-2.468;2023-05-02T00:13:13;3.90;99.90
22450;DHT22;11392;57.390;-2.468;2023-05-02T00:15:41;3.90;99.90
22450;DHT22;11392;57.390;-2.468;2023-05-02T00:18:08;3.90;99.90
22450;DHT22;11392;57.390;-2.468;2023-05-02T00:20:35;3.90;99.90
22450;DHT22;11392;57.390;-2.468;2023-05-02T00:23:05;3.90;99.90
22450;DHT22;11392;57.390;-2.468;2023-05-02T00:25:32;4.00;99.90
22450;DHT22;11392;57.390;-2.468;2023-05-02T00:27:59;4.00;99.90
22450;DHT22;11392;57.390;-2.468;2023-05-02T00:30:26;4.00;99.90
22450;DHT22;11392;57.390;-2.468;2023-05-02T00:32:53;3.90;99.90
22450;DHT22;11392;57.390;-2.468;2023-05-02T00:35:20;3.90;99.90
22450;DHT22;11392;57.390;-2.468;2023-05-02T00:37:47;3.80;99.90
22450;DHT22;11392;57.390;-2.468;2023-05-02T00:40:14;3.80;99.90
22450;DHT22;11392;57.390;-2.468;2023-05-02T00:42:41;3.80;99.90
22450;DHT22;11392;57.390;-2.468;2023-05-02T00:45:09;3.70;99.90
22450;DHT22;11392;57.390;-2.468;2023-05-02T00:47:36;3.80;99.90
22450;DHT22;11392;57.390;-2.468;2023-05-02T00:50:04;3.70;99.90
22450;DHT22;11392;57.390;-2.468;2023-05-02T00:52:32;3.70;99.90
22450;DHT22;11392;57.390;-2.468;2023-05-02T00:55:00;3.60;99.90
22450;DHT22;11392;57.390;-2.468;2023-05-02T00:57:28;3.60;99.90
22450;DHT22;11392;57.390;-2.468;2023-05-02T00:59:55;3.60;99.90
22450;DHT22;11392;57.390;-2.468;2023-05-02T01:05:24;3.50;99.90
22450;DHT22;11392;57.390;-2.468;2023-05-02T01:08:24;3.40;99.90
22450;DHT22;11392;57.390;-2.468;2023-05-02T01:11:03;3.40;99.90
22450;DHT22;11392;57.390;-2.468;2023-05-02T01:13:34;3.40;99.90
22450;DHT22;11392;57.390;-2.468;2023-05-02T01:16:02;3.40;99.90
22450;DHT22;11392;57.390;-2.468;2023-05-02T01:18:33;3.40;99.90
22450;DHT22;11392;57.390;-2.468;2023-05-02T01:21:05;3.40;99.90
22450;DHT22;11392;57.390;-2.468;2023-05-02T01:23:52;3.50;99.90
22450;DHT22;11392;57.390;-2.468;2023-05-02T01:26:26;3.50;99.90
22450;DHT22;11392;57.390;-2.468;2023-05-02T01:29:00;3.50;99.90
22450;DHT22;11392;57.390;-2.468;2023-05-02T01:31:34;3.50;99.90
22450;DHT22;11392;57.390;-2.468;2023-05-02T01:34:05;3.50;99.90
22450;DHT22;11392;57.390;-2.468;2023-05-02T01:36:40;3.60;99.90
22450;DHT22;11392;57.390;-2.468;2023-05-02T01:39:12;3.60;99.90
22450;DHT22;11392;57.390;-2.468;2023-05-02T01:41:41;3.60;99.90
22450;DHT22;11392;57.390;-2.468;2023-05-02T01:44:08;3.60;99.90
22450;DHT22;11392;57.390;-2.468;2023-05-02T01:46:39;3.60;99.90
22450;DHT22;11392;57.390;-2.468;2023-05-02T01:49:08;3.60;99.90
22450;DHT22;11392;57.390;-2.468;2023-05-02T01:51:42;3.70;99.90
22450;DHT22;11392;57.390;-2.468;2023-05-02T01:54:12;3.70;99.90
22450;DHT22;11392;57.390;-2.468;2023-05-02T01:56:39;3.70;99.90
22450;DHT22;11392;57.390;-2.468;2023-05-02T01:59:10;3.70;99.90
22450;DHT22;11392;57.390;-2.468;2023-05-02T02:01:38;3.70;99.90
22450;DHT22;11392;57.390;-2.468;2023-05-02T02:04:08;3.80;99.90
22450;DHT22;11392;57.390;-2.468;2023-05-02T02:06:36;3.80;99.90
22450;DHT22;11392;57.390;-2.468;2023-05-02T02:09:03;3.80;99.90
22450;DHT22;11392;57.390;-2.468;2023-05-02T02:11:36;3.80;99.90
22450;DHT22;11392;57.390;-2.468;2023-05-02T02:14:17;3.80;99.90
22450;DHT22;11392;57.390;-2.468;2023-05-02T02:16:45;3.80;99.90
22450;DHT22;11392;57.390;-2.468;2023-05-02T02:19:14;3.80;99.90
22450;DHT22;11392;57.390;-2.468;2023-05-02T02:21:46;3.70;99.90
22450;DHT22;11392;57.390;-2.468;2023-05-02T02:24:16;3.70;99.90
22450;DHT22;11392;57.390;-2.468;2023-05-02T02:26:44;3.70;99.90
22450;DHT22;11392;57.390;-2.468;2023-05-02T02:29:12;3.70;99.90
22450;DHT22;11392;57.390;-2.468;2023-05-02T02:31:39;3.70;99.90
22450;DHT22;11392;57.390;-2.468;2023-05-02T02:34:06;3.80;99.90
22450;DHT22;11392;57.390;-2.468;2023-05-02T02:37:38;3.90;99.90
22450;DHT22;11392;57.390;-2.468;2023-05-02T02:48:02;3.90;99.90
22450;DHT22;11392;57.390;-2.468;2023-05-02T02:53:59;3.90;99.90
22450;DHT22;11392;57.390;-2.468;2023-05-02T02:56:29;3.90;99.90
22450;DHT22;11392;57.390;-2.468;2023-05-02T02:59:15;3.90;99.90
22450;DHT22;11392;57.390;-2.468;2023-05-02T03:01:47;3.90;99.90
22450;DHT22;11392;57.390;-2.468;2023-05-02T03:04:20;3.90;99.90
22450;DHT22;11392;57.390;-2.468;2023-05-02T03:06:49;4.00;99.90
22450;DHT22;11392;57.390;-2.468;2023-05-02T03:09:16;3.90;99.90
22450;DHT22;11392;57.390;-2.468;2023-05-02T03:11:44;3.90;99.90
22450;DHT22;11392;57.390;-2.468;2023-05-02T03:14:12;4.00;99.90
22450;DHT22;11392;57.390;-2.468;2023-05-02T03:16:40;4.00;99.90
22450;DHT22;11392;57.390;-2.468;2023-05-02T03:19:07;4.10;99.90
22450;DHT22;11392;57.390;-2.468;2023-05-02T03:21:34;4.10;99.90
22450;DHT22;11392;57.390;-2.468;2023-05-02T03:24:03;4.10;99.90
22450;DHT22;11392;57.390;-2.468;2023-05-02T03:26:30;4.10;99.90
22450;DHT22;11392;57.390;-2.468;2023-05-02T03:28:57;4.10;99.90
22450;DHT22;11392;57.390;-2.468;2023-05-02T03:31:24;4.00;99.90
22450;DHT22;11392;57.390;-2.468;2023-05-02T03:33:52;4.00;99.90
22450;DHT22;11392;57.390;-2.468;2023-05-02T03:36:20;4.00;99.90
22450;DHT22;11392;57.390;-2.468;2023-05-02T03:38:47;3.90;99.90
22450;DHT22;11392;57.390;-2.468;2023-05-02T03:41:14;3.90;99.90
22450;DHT22;11392;57.390;-2.468;2023-05-02T03:43:41;3.90;99.90
22450;DHT22;11392;57.390;-2.468;2023-05-02T03:46:08;3.90;99.90
22450;DHT22;11392;57.390;-2.468;2023-05-02T03:48:37;3.70;99.90
22450;DHT22;11392;57.390;-2.468;2023-05-02T03:51:05;3.60;99.90
22450;DHT22;11392;57.390;-2.468;2023-05-02T03:53:34;3.40;99.90
22450;DHT22;11392;57.390;-2.468;2023-05-02T03:56:01;3.30;99.90
22450;DHT22;11392;57.390;-2.468;2023-05-02T03:58:28;3.20;99.90
22450;DHT22;11392;57.390;-2.468;2023-05-02T04:00:55;3.20;99.90
22450;DHT22;11392;57.390;-2.468;2023-05-02T04:03:22;3.20;99.90
22450;DHT22;11392;57.390;-2.468;2023-05-02T04:05:50;3.30;99.90
22450;DHT22;11392;57.390;-2.468;2023-05-02T04:08:17;3.30;99.90
22450;DHT22;11392;57.390;-2.468;2023-05-02T04:10:45;3.40;99.90
22450;DHT22;11392;57.390;-2.468;2023-05-02T04:13:12;3.50;99.90
22450;DHT22;11392;57.390;-2.468;2023-05-02T04:15:39;3.50;99.90
22450;DHT22;11392;57.390;-2.468;2023-05-02T04:18:06;3.60;99.90
22450;DHT22;11392;57.390;-2.468;2023-05-02T04:20:33;3.60;99.90
22450;DHT22;11392;57.390;-2.468;2023-05-02T04:23:00;3.70;99.90
22450;DHT22;11392;57.390;-2.468;2023-05-02T04:25:27;3.60;99.90
22450;DHT22;11392;57.390;-2.468;2023-05-02T04:27:55;3.60;99.90
22450;DHT22;11392;57.390;-2.468;2023-05-02T04:30:22;3.60;99.90
22450;DHT22;11392;57.390;-2.468;2023-05-02T04:32:49;3.70;99.90
22450;DHT22;11392;57.390;-2.468;2023-05-02T04:35:16;3.70;99.90
22450;DHT22;11392;57.390;-2.468;2023-05-02T04:37:44;3.60;99.90
22450;DHT22;11392;57.390;-2.468;2023-05-02T04:40:11;3.60;99.90
22450;DHT22;11392;57.390;-2.468;2023-05-02T04:42:38;3.50;99.90
22450;DHT22;11392;57.390;-2.468;2023-05-02T04:45:06;3.40;99.90
22450;DHT22;11392;57.390;-2.468;2023-05-02T04:47:33;3.40;99.90
22450;DHT22;11392;57.390;-2.468;2023-05-02T04:50:00;3.40;99.90
22450;DHT22;11392;57.390;-2.468;2023-05-02T04:52:29;3.40;99.90
22450;DHT22;11392;57.390;-2.468;2023-05-02T04:54:56;3.30;99.90
22450;DHT22;11392;57.390;-2.468;2023-05-02T04:57:23;3.30;99.90
22450;DHT22;11392;57.390;-2.468;2023-05-02T04:59:50;3.20;99.90
22450;DHT22;11392;57.390;-2.468;2023-05-02T05:02:17;3.10;99.90
22450;DHT22;11392;57.390;-2.468;2023-05-02T05:04:44;3.20;99.90
22450;DHT22;11392;57.390;-2.468;2023-05-02T05:07:11;3.20;99.90
22450;DHT22;11392;57.390;-2.468;2023-05-02T05:09:38;3.30;99.90
22450;DHT22;11392;57.390;-2.468;2023-05-02T05:12:06;3.40;99.90
22450;DHT22;11392;57.390;-2.468;2023-05-02T05:14:33;3.50;99.90
22450;DHT22;11392;57.390;-2.468;2023-05-02T05:17:00;3.50;99.90
22450;DHT22;11392;57.390;-2.468;2023-05-02T05:19:28;3.50;99.90
22450;DHT22;11392;57.390;-2.468;2023-05-02T05:21:55;3.60;99.90
22450;DHT22;11392;57.390;-2.468;2023-05-02T05:24:22;3.60;99.90
22450;DHT22;11392;57.390;-2.468;2023-05-02T05:26:49;3.60;99.90
22450;DHT22;11392;57.390;-2.468;2023-05-02T05:29:16;3.60;99.90
22450;DHT22;11392;57.390;-2.468;2023-05-02T05:31:44;3.70;99.90
22450;DHT22;11392;57.390;-2.468;2023-05-02T05:34:12;3.70;99.90
22450;DHT22;11392;57.390;-2.468;2023-05-02T05:36:40;3.70;99.90
22450;DHT22;11392;57.390;-2.468;2023-05-02T05:39:07;3.70;99.90
22450;DHT22;11392;57.390;-2.468;2023-05-02T05:41:35;3.80;99.90
22450;DHT22;11392;57.390;-2.468;2023-05-02T05:44:03;3.80;99.90
22450;DHT22;11392;57.390;-2.468;2023-05-02T05:46:31;3.90;99.90
22450;DHT22;11392;57.390;-2.468;2023-05-02T05:48:58;4.10;99.90
22450;DHT22;11392;57.390;-2.468;2023-05-02T05:51:25;4.10;99.90
22450;DHT22;11392;57.390;-2.468;2023-05-02T05:53:53;4.20;99.90
22450;DHT22;11392;57.390;-2.468;2023-05-02T05:56:21;4.30;99.90
22450;DHT22;11392;57.390;-2.468;2023-05-02T05:58:48;4.30;99.90
22450;DHT22;11392;57.390;-2.468;2023-05-02T06:01:16;4.40;99.90
22450;DHT22;11392;57.390;-2.468;2023-05-02T06:03:43;4.50;99.90
22450;DHT22;11392;57.390;-2.468;2023-05-02T06:06:10;4.50;99.90
22450;DHT22;11392;57.390;-2.468;2023-05-02T06:08:37;4.60;99.90
22450;DHT22;11392;57.390;-2.468;2023-05-02T06:11:08;4.70;99.90
22450;DHT22;11392;57.390;-2.468;2023-05-02T06:13:37;4.80;99.90
22450;DHT22;11392;57.390;-2.468;2023-05-02T06:16:04;4.80;99.90
22450;DHT22;11392;57.390;-2.468;2023-05-02T06:18:32;4.90;99.90
22450;DHT22;11392;57.390;-2.468;2023-05-02T06:21:05;5.00;99.90
22450;DHT22;11392;57.390;-2.468;2023-05-02T06:23:32;5.10;99.90
22450;DHT22;11392;57.390;-2.468;2023-05-02T06:26:01;5.20;99.90
22450;DHT22;11392;57.390;-2.468;2023-05-02T06:28:28;5.20;99.90
22450;DHT22;11392;57.390;-2.468;2023-05-02T06:31:00;5.30;99.90
22450;DHT22;11392;57.390;-2.468;2023-05-02T06:33:28;5.40;99.90
22450;DHT22;11392;57.390;-2.468;2023-05-02T06:35:57;5.50;99.90
22450;DHT22;11392;57.390;-2.468;2023-05-02T06:38:27;5.70;99.90
22450;DHT22;11392;57.390;-2.468;2023-05-02T06:40:54;5.70;99.90
22450;DHT22;11392;57.390;-2.468;2023-05-02T06:43:21;5.80;99.90
22450;DHT22;11392;57.390;-2.468;2023-05-02T06:45:51;5.90;99.90
22450;DHT22;11392;57.390;-2.468;2023-05-02T06:48:18;5.90;99.90
22450;DHT22;11392;57.390;-2.468;2023-05-02T06:50:45;6.00;99.90
22450;DHT22;11392;57.390;-2.468;2023-05-02T06:53:12;6.00;99.90
22450;DHT22;11392;57.390;-2.468;2023-05-02T06:55:40;6.00;99.90
22450;DHT22;11392;57.390;-2.468;2023-05-02T06:58:07;6.00;99.90
22450;DHT22;11392;57.390;-2.468;2023-05-02T07:00:34;6.00;99.90
22450;DHT22;11392;57.390;-2.468;2023-05-02T07:03:01;6.10;99.90
22450;DHT22;11392;57.390;-2.468;2023-05-02T07:05:28;6.10;99.90
22450;DHT22;11392;57.390;-2.468;2023-05-02T07:07:55;6.20;99.90
22450;DHT22;11392;57.390;-2.468;2023-05-02T07:10:22;6.30;99.90
22450;DHT22;11392;57.390;-2.468;2023-05-02T07:12:49;6.30;99.90
22450;DHT22;11392;57.390;-2.468;2023-05-02T07:15:16;6.40;99.90
22450;DHT22;11392;57.390;-2.468;2023-05-02T07:17:43;6.50;99.90
22450;DHT22;11392;57.390;-2.468;2023-05-02T07:20:13;6.50;99.90
22450;DHT22;11392;57.390;-2.468;2023-05-02T07:22:42;6.60;99.90
22450;DHT22;11392;57.390;-2.468;2023-05-02T07:25:09;6.90;99.90
22450;DHT22;11392;57.390;-2.468;2023-05-02T07:27:36;7.40;99.90
22450;DHT22;11392;57.390;-2.468;2023-05-02T07:30:04;7.80;99.90
22450;DHT22;11392;57.390;-2.468;2023-05-02T07:32:32;8.00;99.90
22450;DHT22;11392;57.390;-2.468;2023-05-02T07:35:00;8.20;99.90
22450;DHT22;11392;57.390;-2.468;2023-05-02T07:37:34;8.60;99.90
22450;DHT22;11392;57.390;-2.468;2023-05-02T07:40:02;8.80;99.90
22450;DHT22;11392;57.390;-2.468;2023-05-02T07:42:30;9.00;99.90
22450;DHT22;11392;57.390;-2.468;2023-05-02T07:44:58;9.30;99.90
22450;DHT22;11392;57.390;-2.468;2023-05-02T07:47:26;9.60;99.90
22450;DHT22;11392;57.390;-2.468;2023-05-02T07:49:53;9.70;99.90
22450;DHT22;11392;57.390;-2.468;2023-05-02T07:52:21;9.70;99.90
22450;DHT22;11392;57.390;-2.468;2023-05-02T07:54:49;9.50;99.90
22450;DHT22;11392;57.390;-2.468;2023-05-02T07:57:17;9.50;99.90
22450;DHT22;11392;57.390;-2.468;2023-05-02T07:59:44;9.90;99.90
22450;DHT22;11392;57.390;-2.468;2023-05-02T08:02:11;10.00;99.90
22450;DHT22;11392;57.390;-2.468;2023-05-02T08:04:40;9.80;99.90
22450;DHT22;11392;57.390;-2.468;2023-05-02T08:07:07;9.90;99.90
22450;DHT22;11392;57.390;-2.468;2023-05-02T08:09:34;9.30;99.90
22450;DHT22;11392;57.390;-2.468;2023-05-02T08:12:01;9.40;99.90
22450;DHT22;11392;57.390;-2.468;2023-05-02T08:14:29;9.70;99.90
22450;DHT22;11392;57.390;-2.468;2023-05-02T08:16:58;9.60;99.90
22450;DHT22;11392;57.390;-2.468;2023-05-02T08:19:25;9.90;99.90
22450;DHT22;11392;57.390;-2.468;2023-05-02T08:21:53;10.20;99.90
22450;DHT22;11392;57.390;-2.468;2023-05-02T08:24:20;9.90;99.90
22450;DHT22;11392;57.390;-2.468;2023-05-02T08:26:48;9.90;99.90
22450;DHT22;11392;57.390;-2.468;2023-05-02T08:29:15;9.70;99.90
22450;DHT22;11392;57.390;-2.468;2023-05-02T08:31:43;10.00;99.90
22450;DHT22;11392;57.390;-2.468;2023-05-02T08:34:10;10.10;99.90
22450;DHT22;11392;57.390;-2.468;2023-05-02T08:36:37;10.20;99.90
22450;DHT22;11392;57.390;-2.468;2023-05-02T08:39:04;10.00;99.90
22450;DHT22;11392;57.390;-2.468;2023-05-02T08:41:33;9.50;99.90
22450;DHT22;11392;57.390;-2.468;2023-05-02T08:44:01;9.30;99.90
22450;DHT22;11392;57.390;-2.468;2023-05-02T08:46:30;9.10;99.90
22450;DHT22;11392;57.390;-2.468;2023-05-02T08:48:59;9.00;99.90
22450;DHT22;11392;57.390;-2.468;2023-05-02T08:51:27;8.80;99.90
22450;DHT22;11392;57.390;-2.468;2023-05-02T08:53:56;9.00;99.90
22450;DHT22;11392;57.390;-2.468;2023-05-02T08:56:24;9.10;99.90
22450;DHT22;11392;57.390;-2.468;2023-05-02T08:58:52;9.40;99.90
22450;DHT22;11392;57.390;-2.468;2023-05-02T09:01:22;9.60;99.90
22450;DHT22;11392;57.390;-2.468;2023-05-02T09:03:49;10.00;99.90
22450;DHT22;11392;57.390;-2.468;2023-05-02T09:06:18;10.70;99.90
22450;DHT22;11392;57.390;-2.468;2023-05-02T09:08:47;10.80;99.90
22450;DHT22;11392;57.390;-2.468;2023-05-02T09:11:16;11.50;99.90
22450;DHT22;11392;57.390;-2.468;2023-05-02T09:13:45;11.80;99.90
22450;DHT22;11392;57.390;-2.468;2023-05-02T09:16:17;12.10;99.90
22450;DHT22;11392;57.390;-2.468;2023-05-02T09:18:51;12.40;99.90
22450;DHT22;11392;57.390;-2.468;2023-05-02T09:21:23;12.30;99.90
22450;DHT22;11392;57.390;-2.468;2023-05-02T09:23:55;12.90;99.90
22450;DHT22;11392;57.390;-2.468;2023-05-02T09:26:27;12.90;99.90
22450;DHT22;11392;57.390;-2.468;2023-05-02T09:29:03;13.10;99.90
22450;DHT22;11392;57.390;-2.468;2023-05-02T09:31:32;12.90;99.90
22450;DHT22;11392;57.390;-2.468;2023-05-02T09:34:21;13.00;99.90
22450;DHT22;11392;57.390;-2.468;2023-05-02T09:36:49;12.90;99.90
22450;DHT22;11392;57.390;-2.468;2023-05-02T09:39:27;12.30;99.90
22450;DHT22;11392;57.390;-2.468;2023-05-02T09:41:58;12.40;99.90
22450;DHT22;11392;57.390;-2.468;2023-05-02T09:44:27;13.00;99.90
22450;DHT22;11392;57.390;-2.468;2023-05-02T09:47:02;12.90;99.90
22450;DHT22;11392;57.390;-2.468;2023-05-02T09:49:43;11.90;99.90
22450;DHT22;11392;57.390;-2.468;2023-05-02T09:54:38;12.10;99.90
22450;DHT22;11392;57.390;-2.468;2023-05-02T09:57:06;12.60;99.90
22450;DHT22;11392;57.390;-2.468;2023-05-02T09:59:33;12.50;99.90
22450;DHT22;11392;57.390;-2.468;2023-05-02T10:02:02;12.30;99.90
22450;DHT22;11392;57.390;-2.468;2023-05-02T10:04:31;12.80;99.90
22450;DHT22;11392;57.390;-2.468;2023-05-02T10:06:58;12.90;99.90
22450;DHT22;11392;57.390;-2.468;2023-05-02T10:09:26;11.90;99.90
22450;DHT22;11392;57.390;-2.468;2023-05-02T10:11:55;11.50;99.90
22450;DHT22;11392;57.390;-2.468;2023-05-02T10:14:23;11.60;99.90
22450;DHT22;11392;57.390;-2.468;2023-05-02T10:17:11;11.80;99.90
22450;DHT22;11392;57.390;-2.468;2023-05-02T10:19:56;11.90;99.90
22450;DHT22;11392;57.390;-2.468;2023-05-02T10:22:24;11.90;99.90
22450;DHT22;11392;57.390;-2.468;2023-05-02T10:24:52;11.90;99.90
22450;DHT22;11392;57.390;-2.468;2023-05-02T10:27:21;11.70;99.90
22450;DHT22;11392;57.390;-2.468;2023-05-02T10:29:50;11.50;99.90
22450;DHT22;11392;57.390;-2.468;2023-05-02T10:32:18;11.60;99.90
22450;DHT22;11392;57.390;-2.468;2023-05-02T10:34:49;11.60;99.90
22450;DHT22;11392;57.390;-2.468;2023-05-02T10:37:17;11.60;99.90
22450;DHT22;11392;57.390;-2.468;2023-05-02T10:39:45;11.40;99.90
22450;DHT22;11392;57.390;-2.468;2023-05-02T10:42:12;11.30;99.90
22450;DHT22;11392;57.390;-2.468;2023-05-02T10:44:40;11.30;99.90
22450;DHT22;11392;57.390;-2.468;2023-05-02T10:47:26;11.40;99.90
22450;DHT22;11392;57.390;-2.468;2023-05-02T10:49:55;11.60;99.90
22450;DHT22;11392;57.390;-2.468;2023-05-02T10:55:20;11.70;99.90
22450;DHT22;11392;57.390;-2.468;2023-05-02T11:00:27;11.50;99.90
22450;DHT22;11392;57.390;-2.468;2023-05-02T11:02:58;11.60;99.90
22450;DHT22;11392;57.390;-2.468;2023-05-02T11:05:27;11.70;99.90
22450;DHT22;11392;57.390;-2.468;2023-05-02T11:10:46;11.70;99.90
22450;DHT22;11392;57.390;-2.468;2023-05-02T11:13:13;11.70;99.90
22450;DHT22;11392;57.390;-2.468;2023-05-02T11:18:09;12.00;99.90
22450;DHT22;11392;57.390;-2.468;2023-05-02T11:20:42;12.30;99.90
22450;DHT22;11392;57.390;-2.468;2023-05-02T11:25:44;12.60;99.90
22450;DHT22;11392;57.390;-2.468;2023-05-02T11:28:38;12.60;99.90
22450;DHT22;11392;57.390;-2.468;2023-05-02T11:31:55;12.50;99.90
22450;DHT22;11392;57.390;-2.468;2023-05-02T11:34:01;12.60;99.90
22450;DHT22;11392;57.390;-2.468;2023-05-02T11:36:32;12.60;99.90
22450;DHT22;11392;57.390;-2.468;2023-05-02T11:39:03;12.50;99.90
22450;DHT22;11392;57.390;-2.468;2023-05-02T11:41:41;12.50;99.90
22450;DHT22;11392;57.390;-2.468;2023-05-02T11:44:08;12.60;99.90
22450;DHT22;11392;57.390;-2.468;2023-05-02T11:46:37;12.60;99.90
22450;DHT22;11392;57.390;-2.468;2023-05-02T11:49:05;12.60;99.90
22450;DHT22;11392;57.390;-2.468;2023-05-02T11:51:35;12.60;99.90
22450;DHT22;11392;57.390;-2.468;2023-05-02T11:54:03;12.30;99.90
22450;DHT22;11392;57.390;-2.468;2023-05-02T11:56:30;12.00;99.90
22450;DHT22;11392;57.390;-2.468;2023-05-02T11:58:58;11.90;99.90
22450;DHT22;11392;57.390;-2.468;2023-05-02T12:01:27;12.20;99.90
22450;DHT22;11392;57.390;-2.468;2023-05-02T12:04:03;12.30;99.90
22450;DHT22;11392;57.390;-2.468;2023-05-02T12:06:33;12.30;99.90
22450;DHT22;11392;57.390;-2.468;2023-05-02T12:11:36;12.30;99.90
22450;DHT22;11392;57.390;-2.468;2023-05-02T12:14:04;12.20;99.90
22450;DHT22;11392;57.390;-2.468;2023-05-02T12:16:32;12.50;99.90
22450;DHT22;11392;57.390;-2.468;2023-05-02T12:19:00;12.60;99.90
22450;DHT22;11392;57.390;-2.468;2023-05-02T12:21:29;12.80;99.90
22450;DHT22;11392;57.390;-2.468;2023-05-02T12:24:00;13.20;99.90
22450;DHT22;11392;57.390;-2.468;2023-05-02T12:26:27;13.50;99.90
22450;DHT22;11392;57.390;-2.468;2023-05-02T12:28:56;13.70;99.90
22450;DHT22;11392;57.390;-2.468;2023-05-02T12:31:28;13.90;99.90
22450;DHT22;11392;57.390;-2.468;2023-05-02T12:33:57;14.20;99.90
22450;DHT22;11392;57.390;-2.468;2023-05-02T12:36:26;14.30;99.90
22450;DHT22;11392;57.390;-2.468;2023-05-02T12:38:56;14.80;99.90
22450;DHT22;11392;57.390;-2.468;2023-05-02T12:41:33;14.90;99.90
22450;DHT22;11392;57.390;-2.468;2023-05-02T12:44:01;15.40;99.90
22450;DHT22;11392;57.390;-2.468;2023-05-02T12:46:29;15.40;99.90
22450;DHT22;11392;57.390;-2.468;2023-05-02T12:49:05;15.00;99.90
22450;DHT22;11392;57.390;-2.468;2023-05-02T12:51:34;14.80;99.90
22450;DHT22;11392;57.390;-2.468;2023-05-02T12:54:02;14.50;99.90
22450;DHT22;11392;57.390;-2.468;2023-05-02T12:56:37;14.50;99.90
22450;DHT22;11392;57.390;-2.468;2023-05-02T12:59:04;14.60;99.90
22450;DHT22;11392;57.390;-2.468;2023-05-02T13:01:34;14.60;99.90
22450;DHT22;11392;57.390;-2.468;2023-05-02T13:04:02;14.60;99.90
22450;DHT22;11392;57.390;-2.468;2023-05-02T13:06:29;14.20;99.90
22450;DHT22;11392;57.390;-2.468;2023-05-02T13:08:57;13.70;99.90
22450;DHT22;11392;57.390;-2.468;2023-05-02T13:11:24;13.80;99.90
22450;DHT22;11392;57.390;-2.468;2023-05-02T13:13:51;13.80;99.90
22450;DHT22;11392;57.390;-2.468;2023-05-02T13:16:19;13.90;99.90
22450;DHT22;11392;57.390;-2.468;2023-05-02T13:18:47;13.90;99.90
22450;DHT22;11392;57.390;-2.468;2023-05-02T13:21:17;13.70;99.90
22450;DHT22;11392;57.390;-2.468;2023-05-02T13:23:46;13.70;99.90
22450;DHT22;11392;57.390;-2.468;2023-05-02T13:26:13;13.80;99.90
22450;DHT22;11392;57.390;-2.468;2023-05-02T13:28:40;13.90;99.90
22450;DHT22;11392;57.390;-2.468;2023-05-02T13:31:07;14.20;99.90
22450;DHT22;11392;57.390;-2.468;2023-05-02T13:33:34;14.30;99.90
22450;DHT22;11392;57.390;-2.468;2023-05-02T13:36:01;14.20;99.90
22450;DHT22;11392;57.390;-2.468;2023-05-02T13:38:28;14.40;99.90
22450;DHT22;11392;57.390;-2.468;2023-05-02T13:40:55;14.20;99.90
22450;DHT22;11392;57.390;-2.468;2023-05-02T13:43:23;14.60;99.90
22450;DHT22;11392;57.390;-2.468;2023-05-02T13:45:50;14.60;99.90
22450;DHT22;11392;57.390;-2.468;2023-05-02T13:48:18;15.20;99.90
22450;DHT22;11392;57.390;-2.468;2023-05-02T13:50:45;15.80;99.90
22450;DHT22;11392;57.390;-2.468;2023-05-02T13:53:12;15.40;99.90
22450;DHT22;11392;57.390;-2.468;2023-05-02T13:55:39;15.80;99.90
22450;DHT22;11392;57.390;-2.468;2023-05-02T13:58:06;15.50;99.90
22450;DHT22;11392;57.390;-2.468;2023-05-02T14:00:33;14.90;99.90
22450;DHT22;11392;57.390;-2.468;2023-05-02T14:03:00;14.50;99.90
22450;DHT22;11392;57.390;-2.468;2023-05-02T14:05:28;14.40;99.90
22450;DHT22;11392;57.390;-2.468;2023-05-02T14:07:55;14.20;99.90
22450;DHT22;11392;57.390;-2.468;2023-05-02T14:10:22;14.10;99.90
22450;DHT22;11392;57.390;-2.468;2023-05-02T14:12:49;13.90;99.90
22450;DHT22;11392;57.390;-2.468;2023-05-02T14:15:16;14.10;99.90
22450;DHT22;11392;57.390;-2.468;2023-05-02T14:17:43;14.00;99.90
22450;DHT22;11392;57.390;-2.468;2023-05-02T14:20:10;14.20;99.90
22450;DHT22;11392;57.390;-2.468;2023-05-02T14:22:38;14.30;99.90
22450;DHT22;11392;57.390;-2.468;2023-05-02T14:25:05;14.20;99.90
22450;DHT22;11392;57.390;-2.468;2023-05-02T14:27:33;14.40;99.90
22450;DHT22;11392;57.390;-2.468;2023-05-02T14:30:00;14.60;99.90
22450;DHT22;11392;57.390;-2.468;2023-05-02T14:32:28;14.40;99.90
22450;DHT22;11392;57.390;-2.468;2023-05-02T14:34:55;14.70;99.90
22450;DHT22;11392;57.390;-2.468;2023-05-02T14:37:22;14.80;99.90
22450;DHT22;11392;57.390;-2.468;2023-05-02T14:39:49;15.40;99.90
22450;DHT22;11392;57.390;-2.468;2023-05-02T14:42:24;15.40;99.90
22450;DHT22;11392;57.390;-2.468;2023-05-02T14:44:51;15.10;99.90
22450;DHT22;11392;57.390;-2.468;2023-05-02T14:47:19;15.20;99.90
22450;DHT22;11392;57.390;-2.468;2023-05-02T14:49:46;15.40;99.90
22450;DHT22;11392;57.390;-2.468;2023-05-02T14:52:13;15.70;99.90
22450;DHT22;11392;57.390;-2.468;2023-05-02T14:54:40;16.20;99.90
22450;DHT22;11392;57.390;-2.468;2023-05-02T14:57:08;16.10;99.90
22450;DHT22;11392;57.390;-2.468;2023-05-02T14:59:35;15.80;99.90
22450;DHT22;11392;57.390;-2.468;2023-05-02T15:02:02;15.40;99.90
22450;DHT22;11392;57.390;-2.468;2023-05-02T15:04:30;15.20;99.90
22450;DHT22;11392;57.390;-2.468;2023-05-02T15:06:59;15.00;99.90
22450;DHT22;11392;57.390;-2.468;2023-05-02T15:09:26;15.20;99.90
22450;DHT22;11392;57.390;-2.468;2023-05-02T15:11:55;15.60;99.90
22450;DHT22;11392;57.390;-2.468;2023-05-02T15:14:22;15.60;99.90
22450;DHT22;11392;57.390;-2.468;2023-05-02T15:16:49;15.50;99.90
22450;DHT22;11392;57.390;-2.468;2023-05-02T15:19:16;14.90;99.90
22450;DHT22;11392;57.390;-2.468;2023-05-02T15:21:43;14.40;99.90
22450;DHT22;11392;57.390;-2.468;2023-05-02T15:24:10;14.20;99.90
22450;DHT22;11392;57.390;-2.468;2023-05-02T15:26:38;14.40;99.90
22450;DHT22;11392;57.390;-2.468;2023-05-02T15:29:06;14.60;99.90
22450;DHT22;11392;57.390;-2.468;2023-05-02T15:31:33;14.80;99.90
22450;DHT22;11392;57.390;-2.468;2023-05-02T15:34:00;14.60;99.90
22450;DHT22;11392;57.390;-2.468;2023-05-02T15:36:28;14.30;99.90
22450;DHT22;11392;57.390;-2.468;2023-05-02T15:38:56;14.10;99.90
22450;DHT22;11392;57.390;-2.468;2023-05-02T15:41:26;13.70;99.90
22450;DHT22;11392;57.390;-2.468;2023-05-02T15:43:53;13.60;99.90
22450;DHT22;11392;57.390;-2.468;2023-05-02T15:46:21;13.70;99.90
22450;DHT22;11392;57.390;-2.468;2023-05-02T15:48:48;13.60;99.90
22450;DHT22;11392;57.390;-2.468;2023-05-02T15:51:15;13.50;99.90
22450;DHT22;11392;57.390;-2.468;2023-05-02T15:53:43;13.60;99.90
22450;DHT22;11392;57.390;-2.468;2023-05-02T15:56:11;13.50;99.90
22450;DHT22;11392;57.390;-2.468;2023-05-02T15:58:38;13.60;99.90
22450;DHT22;11392;57.390;-2.468;2023-05-02T16:01:06;13.70;99.90
22450;DHT22;11392;57.390;-2.468;2023-05-02T16:03:33;13.70;99.90
22450;DHT22;11392;57.390;-2.468;2023-05-02T16:06:00;14.00;99.90
22450;DHT22;11392;57.390;-2.468;2023-05-02T16:08:27;14.10;99.90